sensor_id;sensor_type;location;lat;lon;timestamp;P1;durP1;ratioP1;P2;durP2;ratioP2
62724;SDS011;49026;52.600;4.694;2022-08-01T00:00:34;10.52;;;4.80;;
62724;SDS011;49026;52.600;4.694;2022-08-01T00:02:59;10.60;;;5.13;;
62724;SDS011;49026;52.600;4.694;2022-08-01T00:05:25;10.07;;;5.47;;
62724;SDS011;49026;52.600;4.694;2022-08-01T00:07:50;7.80;;;5.80;;
62724;SDS011;49026;52.600;4.694;2022-08-01T00:10:15;14.20;;;6.18;;
62724;SDS011;49026;52.600;4.694;2022-08-01T00:12:41;12.10;;;6.10;;
62724;SDS011;49026;52.600;4.694;2022-08-01T00:15:08;16.25;;;6.60;;
62724;SDS011;49026;52.600;4.694;2022-08-01T00:17:35;10.68;;;6.00;;
62724;SDS011;49026;52.600;4.694;2022-08-01T00:20:01;12.82;;;6.28;;
62724;SDS011;49026;52.600;4.694;2022-08-01T00:22:28;11.73;;;7.05;;
62724;SDS011;49026;52.600;4.694;2022-08-01T00:24:55;15.55;;;7.57;;
62724;SDS011;49026;52.600;4.694;2022-08-01T00:27:20;13.73;;;6.60;;
62724;SDS011;49026;52.600;4.694;2022-08-01T00:29:46;27.83;;;7.55;;
62724;SDS011;49026;52.600;4.694;2022-08-01T00:32:14;10.95;;;6.32;;
62724;SDS011;49026;52.600;4.694;2022-08-01T00:34:40;14.57;;;7.50;;
62724;SDS011;49026;52.600;4.694;2022-08-01T00:37:05;15.73;;;6.88;;
62724;SDS011;49026;52.600;4.694;2022-08-01T00:39:31;14.95;;;6.95;;
62724;SDS011;49026;52.600;4.694;2022-08-01T00:41:58;14.27;;;6.80;;
62724;SDS011;49026;52.600;4.694;2022-08-01T00:44:24;11.80;;;7.30;;
62724;SDS011;49026;52.600;4.694;2022-08-01T00:46:50;14.98;;;7.03;;
62724;SDS011;49026;52.600;4.694;2022-08-01T00:49:15;13.35;;;6.85;;
62724;SDS011;49026;52.600;4.694;2022-08-01T00:51:40;15.18;;;6.93;;
62724;SDS011;49026;52.600;4.694;2022-08-01T00:54:09;16.45;;;6.80;;
62724;SDS011;49026;52.600;4.694;2022-08-01T00:56:35;10.95;;;5.90;;
62724;SDS011;49026;52.600;4.694;2022-08-01T00:59:00;12.10;;;5.72;;
62724;SDS011;49026;52.600;4.694;2022-08-01T01:01:28;9.25;;;5.20;;
62724;SDS011;49026;52.600;4.694;2022-08-01T01:03:54;7.22;;;5.00;;
62724;SDS011;49026;52.600;4.694;2022-08-01T01:06:29;9.77;;;4.40;;
62724;SDS011;49026;52.600;4.694;2022-08-01T01:09:09;6.55;;;3.33;;
62724;SDS011;49026;52.600;4.694;2022-08-01T01:14:38;9.00;;;3.00;;
62724;SDS011;49026;52.600;4.694;2022-08-01T01:17:20;6.78;;;3.70;;
62724;SDS011;49026;52.600;4.694;2022-08-01T01:19:54;8.38;;;3.58;;
62724;SDS011;49026;52.600;4.694;2022-08-01T01:22:36;11.48;;;3.95;;
62724;SDS011;49026;52.600;4.694;2022-08-01T01:31:43;10.20;;;3.88;;
62724;SDS011;49026;52.600;4.694;2022-08-01T01:34:29;8.30;;;3.97;;
62724;SDS011;49026;52.600;4.694;2022-08-01T01:39:33;9.57;;;4.03;;
62724;SDS011;49026;52.600;4.694;2022-08-01T01:42:01;11.07;;;3.53;;
62724;SDS011;49026;52.600;4.694;2022-08-01T01:44:31;7.97;;;4.43;;
62724;SDS011;49026;52.600;4.694;2022-08-01T01:46:57;8.02;;;3.88;;
62724;SDS011;49026;52.600;4.694;2022-08-01T01:49:31;12.15;;;3.83;;
62724;SDS011;49026;52.600;4.694;2022-08-01T01:52:15;10.07;;;4.57;;
62724;SDS011;49026;52.600;4.694;2022-08-01T01:54:53;12.02;;;5.13;;
62724;SDS011;49026;52.600;4.694;2022-08-01T01:57:41;11.18;;;4.18;;
62724;SDS011;49026;52.600;4.694;2022-08-01T02:00:19;10.23;;;4.13;;
62724;SDS011;49026;52.600;4.694;2022-08-01T02:02:57;7.20;;;3.50;;
62724;SDS011;49026;52.600;4.694;2022-08-01T02:05:27;5.28;;;2.78;;
62724;SDS011;49026;52.600;4.694;2022-08-01T02:08:06;7.93;;;3.22;;
62724;SDS011;49026;52.600;4.694;2022-08-01T02:10:53;8.98;;;3.00;;
62724;SDS011;49026;52.600;4.694;2022-08-01T02:13:38;6.60;;;3.08;;
62724;SDS011;49026;52.600;4.694;2022-08-01T02:16:16;6.10;;;3.05;;
62724;SDS011;49026;52.600;4.694;2022-08-01T02:18:55;8.20;;;3.55;;
62724;SDS011;49026;52.600;4.694;2022-08-01T02:21:26;9.82;;;3.70;;
62724;SDS011;49026;52.600;4.694;2022-08-01T02:23:55;9.73;;;2.92;;
62724;SDS011;49026;52.600;4.694;2022-08-01T02:26:33;9.90;;;2.90;;
62724;SDS011;49026;52.600;4.694;2022-08-01T02:29:15;7.45;;;3.63;;
62724;SDS011;49026;52.600;4.694;2022-08-01T02:31:53;11.55;;;3.08;;
62724;SDS011;49026;52.600;4.694;2022-08-01T02:34:27;10.02;;;3.10;;
62724;SDS011;49026;52.600;4.694;2022-08-01T02:37:06;8.50;;;3.53;;
62724;SDS011;49026;52.600;4.694;2022-08-01T02:39:41;9.23;;;3.20;;
62724;SDS011;49026;52.600;4.694;2022-08-01T02:42:23;10.18;;;3.08;;
62724;SDS011;49026;52.600;4.694;2022-08-01T02:44:54;8.68;;;3.83;;
62724;SDS011;49026;52.600;4.694;2022-08-01T02:47:24;8.45;;;3.65;;
62724;SDS011;49026;52.600;4.694;2022-08-01T02:49:58;8.75;;;3.83;;
62724;SDS011;49026;52.600;4.694;2022-08-01T02:52:37;11.48;;;4.55;;
62724;SDS011;49026;52.600;4.694;2022-08-01T02:55:07;14.35;;;4.28;;
62724;SDS011;49026;52.600;4.694;2022-08-01T02:57:45;8.35;;;3.90;;
62724;SDS011;49026;52.600;4.694;2022-08-01T03:00:18;11.77;;;4.55;;
62724;SDS011;49026;52.600;4.694;2022-08-01T03:02:44;13.05;;;4.82;;
62724;SDS011;49026;52.600;4.694;2022-08-01T03:05:38;11.27;;;4.80;;
62724;SDS011;49026;52.600;4.694;2022-08-01T03:08:23;13.18;;;5.20;;
62724;SDS011;49026;52.600;4.694;2022-08-01T03:11:01;14.63;;;5.50;;
62724;SDS011;49026;52.600;4.694;2022-08-01T03:13:40;14.95;;;5.38;;
62724;SDS011;49026;52.600;4.694;2022-08-01T03:16:33;17.95;;;6.15;;
62724;SDS011;49026;52.600;4.694;2022-08-01T03:19:02;21.45;;;6.82;;
62724;SDS011;49026;52.600;4.694;2022-08-01T03:21:29;23.20;;;7.53;;
62724;SDS011;49026;52.600;4.694;2022-08-01T03:23:59;19.70;;;7.00;;
62724;SDS011;49026;52.600;4.694;2022-08-01T03:26:42;22.98;;;8.02;;
62724;SDS011;49026;52.600;4.694;2022-08-01T03:29:14;28.90;;;8.23;;
62724;SDS011;49026;52.600;4.694;2022-08-01T03:31:43;23.98;;;7.88;;
62724;SDS011;49026;52.600;4.694;2022-08-01T03:34:16;26.98;;;9.30;;
62724;SDS011;49026;52.600;4.694;2022-08-01T03:36:47;27.23;;;9.32;;
62724;SDS011;49026;52.600;4.694;2022-08-01T03:39:34;32.97;;;9.38;;
62724;SDS011;49026;52.600;4.694;2022-08-01T03:42:09;30.90;;;9.55;;
62724;SDS011;49026;52.600;4.694;2022-08-01T03:44:56;35.17;;;9.55;;
62724;SDS011;49026;52.600;4.694;2022-08-01T03:50:27;31.80;;;8.63;;
62724;SDS011;49026;52.600;4.694;2022-08-01T03:53:03;34.35;;;9.35;;
62724;SDS011;49026;52.600;4.694;2022-08-01T03:55:32;36.17;;;9.07;;
62724;SDS011;49026;52.600;4.694;2022-08-01T03:57:59;35.88;;;10.10;;
62724;SDS011;49026;52.600;4.694;2022-08-01T04:00:31;43.05;;;12.00;;
62724;SDS011;49026;52.600;4.694;2022-08-01T04:03:00;32.88;;;9.05;;
62724;SDS011;49026;52.600;4.694;2022-08-01T04:05:27;33.28;;;8.02;;
62724;SDS011;49026;52.600;4.694;2022-08-01T04:07:56;40.65;;;9.52;;
62724;SDS011;49026;52.600;4.694;2022-08-01T04:10:24;42.45;;;9.50;;
62724;SDS011;49026;52.600;4.694;2022-08-01T04:12:53;32.75;;;8.15;;
62724;SDS011;49026;52.600;4.694;2022-08-01T04:15:18;46.72;;;9.55;;
62724;SDS011;49026;52.600;4.694;2022-08-01T04:17:45;29.70;;;8.32;;
62724;SDS011;49026;52.600;4.694;2022-08-01T04:20:15;43.90;;;8.80;;
62724;SDS011;49026;52.600;4.694;2022-08-01T04:22:44;33.33;;;8.25;;
62724;SDS011;49026;52.600;4.694;2022-08-01T04:25:21;31.02;;;9.30;;
62724;SDS011;49026;52.600;4.694;2022-08-01T04:27:53;45.90;;;8.85;;
62724;SDS011;49026;52.600;4.694;2022-08-01T04:30:20;36.80;;;8.98;;
62724;SDS011;49026;52.600;4.694;2022-08-01T04:32:51;42.72;;;8.50;;
62724;SDS011;49026;52.600;4.694;2022-08-01T04:35:19;37.92;;;7.60;;
62724;SDS011;49026;52.600;4.694;2022-08-01T04:37:53;36.38;;;6.38;;
62724;SDS011;49026;52.600;4.694;2022-08-01T04:40:25;29.50;;;5.95;;
62724;SDS011;49026;52.600;4.694;2022-08-01T04:42:53;28.33;;;5.10;;
62724;SDS011;49026;52.600;4.694;2022-08-01T04:45:22;30.88;;;5.30;;
62724;SDS011;49026;52.600;4.694;2022-08-01T04:47:48;25.67;;;4.57;;
62724;SDS011;49026;52.600;4.694;2022-08-01T04:50:14;28.90;;;5.90;;
62724;SDS011;49026;52.600;4.694;2022-08-01T04:52:40;26.33;;;5.13;;
62724;SDS011;49026;52.600;4.694;2022-08-01T04:55:07;27.38;;;4.55;;
62724;SDS011;49026;52.600;4.694;2022-08-01T04:57:37;21.23;;;4.65;;
62724;SDS011;49026;52.600;4.694;2022-08-01T05:00:49;27.80;;;5.38;;
62724;SDS011;49026;52.600;4.694;2022-08-01T05:03:14;25.35;;;5.15;;
62724;SDS011;49026;52.600;4.694;2022-08-01T05:05:40;29.83;;;5.18;;
62724;SDS011;49026;52.600;4.694;2022-08-01T05:08:05;29.73;;;4.68;;
62724;SDS011;49026;52.600;4.694;2022-08-01T05:10:31;25.42;;;5.18;;
62724;SDS011;49026;52.600;4.694;2022-08-01T05:12:57;21.63;;;4.63;;
62724;SDS011;49026;52.600;4.694;2022-08-01T05:15:22;11.15;;;2.85;;
62724;SDS011;49026;52.600;4.694;2022-08-01T05:17:47;14.70;;;3.95;;
62724;SDS011;49026;52.600;4.694;2022-08-01T05:20:13;18.35;;;3.60;;
62724;SDS011;49026;52.600;4.694;2022-08-01T05:22:38;16.08;;;4.22;;
62724;SDS011;49026;52.600;4.694;2022-08-01T05:25:04;18.65;;;3.58;;
62724;SDS011;49026;52.600;4.694;2022-08-01T05:27:31;17.25;;;4.05;;
62724;SDS011;49026;52.600;4.694;2022-08-01T05:29:56;10.88;;;2.85;;
62724;SDS011;49026;52.600;4.694;2022-08-01T05:32:22;13.77;;;3.05;;
62724;SDS011;49026;52.600;4.694;2022-08-01T05:34:47;16.77;;;2.45;;
62724;SDS011;49026;52.600;4.694;2022-08-01T05:37:13;20.77;;;3.55;;
62724;SDS011;49026;52.600;4.694;2022-08-01T05:39:38;17.75;;;3.30;;
62724;SDS011;49026;52.600;4.694;2022-08-01T05:42:04;20.27;;;3.28;;
62724;SDS011;49026;52.600;4.694;2022-08-01T05:44:29;13.40;;;2.60;;
62724;SDS011;49026;52.600;4.694;2022-08-01T05:46:55;19.30;;;2.75;;
62724;SDS011;49026;52.600;4.694;2022-08-01T05:49:20;20.30;;;2.78;;
62724;SDS011;49026;52.600;4.694;2022-08-01T05:51:49;12.90;;;2.47;;
62724;SDS011;49026;52.600;4.694;2022-08-01T05:54:14;12.13;;;2.42;;
62724;SDS011;49026;52.600;4.694;2022-08-01T05:56:39;11.20;;;2.78;;
62724;SDS011;49026;52.600;4.694;2022-08-01T05:59:07;18.38;;;2.30;;
62724;SDS011;49026;52.600;4.694;2022-08-01T06:01:33;19.92;;;2.95;;
62724;SDS011;49026;52.600;4.694;2022-08-01T06:03:58;16.45;;;2.92;;
62724;SDS011;49026;52.600;4.694;2022-08-01T06:06:24;9.68;;;2.15;;
62724;SDS011;49026;52.600;4.694;2022-08-01T06:08:49;20.63;;;2.50;;
62724;SDS011;49026;52.600;4.694;2022-08-01T06:11:15;13.60;;;2.75;;
62724;SDS011;49026;52.600;4.694;2022-08-01T06:13:43;16.65;;;2.40;;
62724;SDS011;49026;52.600;4.694;2022-08-01T06:16:08;27.90;;;3.10;;
62724;SDS011;49026;52.600;4.694;2022-08-01T06:18:34;18.75;;;2.60;;
62724;SDS011;49026;52.600;4.694;2022-08-01T06:20:59;19.35;;;2.75;;
62724;SDS011;49026;52.600;4.694;2022-08-01T06:23:24;18.48;;;2.20;;
62724;SDS011;49026;52.600;4.694;2022-08-01T06:25:53;11.68;;;2.08;;
62724;SDS011;49026;52.600;4.694;2022-08-01T06:28:23;15.73;;;2.47;;
62724;SDS011;49026;52.600;4.694;2022-08-01T06:30:48;17.85;;;3.03;;
62724;SDS011;49026;52.600;4.694;2022-08-01T06:33:13;19.25;;;2.33;;
62724;SDS011;49026;52.600;4.694;2022-08-01T06:35:41;19.60;;;2.38;;
62724;SDS011;49026;52.600;4.694;2022-08-01T06:38:07;21.17;;;2.60;;
62724;SDS011;49026;52.600;4.694;2022-08-01T06:40:32;24.65;;;2.72;;
62724;SDS011;49026;52.600;4.694;2022-08-01T06:42:57;16.90;;;2.53;;
62724;SDS011;49026;52.600;4.694;2022-08-01T06:45:23;15.65;;;2.50;;
62724;SDS011;49026;52.600;4.694;2022-08-01T06:47:50;12.57;;;2.42;;
62724;SDS011;49026;52.600;4.694;2022-08-01T06:50:16;16.15;;;2.58;;
62724;SDS011;49026;52.600;4.694;2022-08-01T06:52:41;13.25;;;2.45;;
62724;SDS011;49026;52.600;4.694;2022-08-01T06:55:09;20.08;;;2.25;;
62724;SDS011;49026;52.600;4.694;2022-08-01T06:57:35;19.70;;;3.25;;
62724;SDS011;49026;52.600;4.694;2022-08-01T07:00:02;14.80;;;1.98;;
62724;SDS011;49026;52.600;4.694;2022-08-01T07:02:34;16.30;;;1.90;;
62724;SDS011;49026;52.600;4.694;2022-08-01T07:05:01;11.93;;;2.55;;
62724;SDS011;49026;52.600;4.694;2022-08-01T07:07:28;13.85;;;2.95;;
62724;SDS011;49026;52.600;4.694;2022-08-01T07:09:56;13.77;;;2.03;;
62724;SDS011;49026;52.600;4.694;2022-08-01T07:12:21;16.60;;;2.65;;
62724;SDS011;49026;52.600;4.694;2022-08-01T07:14:46;20.23;;;4.10;;
62724;SDS011;49026;52.600;4.694;2022-08-01T07:17:12;14.43;;;2.30;;
62724;SDS011;49026;52.600;4.694;2022-08-01T07:19:37;13.73;;;2.08;;
62724;SDS011;49026;52.600;4.694;2022-08-01T07:22:02;15.70;;;1.83;;
62724;SDS011;49026;52.600;4.694;2022-08-01T07:24:28;11.82;;;2.20;;
62724;SDS011;49026;52.600;4.694;2022-08-01T07:26:54;15.07;;;2.35;;
62724;SDS011;49026;52.600;4.694;2022-08-01T07:29:31;16.33;;;2.88;;
62724;SDS011;49026;52.600;4.694;2022-08-01T07:31:57;18.30;;;1.98;;
62724;SDS011;49026;52.600;4.694;2022-08-01T07:34:23;12.10;;;2.40;;
62724;SDS011;49026;52.600;4.694;2022-08-01T07:36:51;11.07;;;2.08;;
62724;SDS011;49026;52.600;4.694;2022-08-01T07:39:17;14.73;;;2.05;;
62724;SDS011;49026;52.600;4.694;2022-08-01T07:41:45;13.63;;;2.08;;
62724;SDS011;49026;52.600;4.694;2022-08-01T07:44:10;9.57;;;1.70;;
62724;SDS011;49026;52.600;4.694;2022-08-01T07:46:35;10.75;;;1.85;;
62724;SDS011;49026;52.600;4.694;2022-08-01T07:49:03;9.13;;;1.73;;
62724;SDS011;49026;52.600;4.694;2022-08-01T07:51:29;8.60;;;1.92;;
62724;SDS011;49026;52.600;4.694;2022-08-01T07:53:54;8.80;;;1.98;;
62724;SDS011;49026;52.600;4.694;2022-08-01T07:56:21;10.85;;;2.00;;
62724;SDS011;49026;52.600;4.694;2022-08-01T07:58:49;10.93;;;1.75;;
62724;SDS011;49026;52.600;4.694;2022-08-01T08:01:17;12.18;;;1.92;;
62724;SDS011;49026;52.600;4.694;2022-08-01T08:03:42;7.47;;;1.92;;
62724;SDS011;49026;52.600;4.694;2022-08-01T08:06:10;16.88;;;2.33;;
62724;SDS011;49026;52.600;4.694;2022-08-01T08:08:37;13.50;;;2.10;;
62724;SDS011;49026;52.600;4.694;2022-08-01T08:11:03;5.63;;;1.63;;
62724;SDS011;49026;52.600;4.694;2022-08-01T08:13:31;11.27;;;1.60;;
62724;SDS011;49026;52.600;4.694;2022-08-01T08:15:56;9.43;;;2.03;;
62724;SDS011;49026;52.600;4.694;2022-08-01T08:18:25;8.95;;;1.52;;
62724;SDS011;49026;52.600;4.694;2022-08-01T08:20:50;13.23;;;1.50;;
62724;SDS011;49026;52.600;4.694;2022-08-01T08:23:16;11.15;;;2.00;;
62724;SDS011;49026;52.600;4.694;2022-08-01T08:25:59;11.20;;;1.75;;
62724;SDS011;49026;52.600;4.694;2022-08-01T08:28:25;10.05;;;1.40;;
62724;SDS011;49026;52.600;4.694;2022-08-01T08:30:50;5.57;;;1.40;;
62724;SDS011;49026;52.600;4.694;2022-08-01T08:33:21;19.98;;;2.42;;
62724;SDS011;49026;52.600;4.694;2022-08-01T08:35:46;8.68;;;2.05;;
62724;SDS011;49026;52.600;4.694;2022-08-01T08:38:11;15.25;;;1.80;;
62724;SDS011;49026;52.600;4.694;2022-08-01T08:40:39;16.10;;;2.55;;
62724;SDS011;49026;52.600;4.694;2022-08-01T08:43:07;11.98;;;2.13;;
62724;SDS011;49026;52.600;4.694;2022-08-01T08:45:33;8.82;;;1.92;;
62724;SDS011;49026;52.600;4.694;2022-08-01T08:47:59;5.20;;;1.27;;
62724;SDS011;49026;52.600;4.694;2022-08-01T08:50:25;6.63;;;1.40;;
62724;SDS011;49026;52.600;4.694;2022-08-01T08:52:53;10.50;;;1.50;;
62724;SDS011;49026;52.600;4.694;2022-08-01T08:55:19;6.05;;;1.30;;
62724;SDS011;49026;52.600;4.694;2022-08-01T08:57:48;11.68;;;1.85;;
62724;SDS011;49026;52.600;4.694;2022-08-01T09:00:15;5.50;;;1.23;;
62724;SDS011;49026;52.600;4.694;2022-08-01T09:02:42;10.00;;;1.60;;
62724;SDS011;49026;52.600;4.694;2022-08-01T09:05:09;4.72;;;1.00;;
62724;SDS011;49026;52.600;4.694;2022-08-01T09:07:34;7.80;;;1.67;;
62724;SDS011;49026;52.600;4.694;2022-08-01T09:09:59;6.15;;;1.23;;
62724;SDS011;49026;52.600;4.694;2022-08-01T09:12:25;5.40;;;1.13;;
62724;SDS011;49026;52.600;4.694;2022-08-01T09:14:50;10.25;;;1.77;;
62724;SDS011;49026;52.600;4.694;2022-08-01T09:17:18;7.07;;;1.25;;
62724;SDS011;49026;52.600;4.694;2022-08-01T09:19:45;13.30;;;1.42;;
62724;SDS011;49026;52.600;4.694;2022-08-01T09:22:14;9.02;;;1.33;;
62724;SDS011;49026;52.600;4.694;2022-08-01T09:24:55;7.75;;;1.27;;
62724;SDS011;49026;52.600;4.694;2022-08-01T09:27:27;4.60;;;1.13;;
62724;SDS011;49026;52.600;4.694;2022-08-01T09:29:54;8.98;;;3.42;;
62724;SDS011;49026;52.600;4.694;2022-08-01T09:35:28;12.02;;;1.85;;
62724;SDS011;49026;52.600;4.694;2022-08-01T09:38:24;13.73;;;1.45;;
62724;SDS011;49026;52.600;4.694;2022-08-01T09:40:57;10.57;;;2.05;;
62724;SDS011;49026;52.600;4.694;2022-08-01T09:43:24;8.57;;;1.55;;
62724;SDS011;49026;52.600;4.694;2022-08-01T09:45:51;8.02;;;1.52;;
62724;SDS011;49026;52.600;4.694;2022-08-01T09:48:17;5.93;;;1.08;;
62724;SDS011;49026;52.600;4.694;2022-08-01T09:50:44;6.63;;;1.55;;
62724;SDS011;49026;52.600;4.694;2022-08-01T09:53:11;5.70;;;1.40;;
62724;SDS011;49026;52.600;4.694;2022-08-01T09:55:41;10.25;;;1.63;;
62724;SDS011;49026;52.600;4.694;2022-08-01T09:58:07;6.72;;;1.40;;
62724;SDS011;49026;52.600;4.694;2022-08-01T10:00:35;12.10;;;1.52;;
62724;SDS011;49026;52.600;4.694;2022-08-01T10:05:44;9.23;;;1.60;;
62724;SDS011;49026;52.600;4.694;2022-08-01T10:08:10;5.60;;;1.30;;
62724;SDS011;49026;52.600;4.694;2022-08-01T10:10:37;6.38;;;1.42;;
62724;SDS011;49026;52.600;4.694;2022-08-01T10:13:02;7.50;;;1.42;;
62724;SDS011;49026;52.600;4.694;2022-08-01T10:15:29;4.50;;;1.08;;
62724;SDS011;49026;52.600;4.694;2022-08-01T10:17:56;6.28;;;1.33;;
62724;SDS011;49026;52.600;4.694;2022-08-01T10:20:27;6.88;;;1.20;;
62724;SDS011;49026;52.600;4.694;2022-08-01T10:22:54;9.82;;;1.50;;
62724;SDS011;49026;52.600;4.694;2022-08-01T10:25:20;6.90;;;1.25;;
62724;SDS011;49026;52.600;4.694;2022-08-01T10:27:49;7.05;;;1.52;;
62724;SDS011;49026;52.600;4.694;2022-08-01T10:30:20;5.25;;;1.35;;
62724;SDS011;49026;52.600;4.694;2022-08-01T10:32:46;4.95;;;1.60;;
62724;SDS011;49026;52.600;4.694;2022-08-01T10:35:12;7.25;;;1.73;;
62724;SDS011;49026;52.600;4.694;2022-08-01T10:37:42;5.90;;;1.42;;
62724;SDS011;49026;52.600;4.694;2022-08-01T10:40:09;10.38;;;2.35;;
62724;SDS011;49026;52.600;4.694;2022-08-01T10:42:42;5.57;;;1.75;;
62724;SDS011;49026;52.600;4.694;2022-08-01T10:45:14;10.35;;;1.52;;
62724;SDS011;49026;52.600;4.694;2022-08-01T10:47:42;6.07;;;1.35;;
62724;SDS011;49026;52.600;4.694;2022-08-01T10:50:16;12.70;;;1.77;;
62724;SDS011;49026;52.600;4.694;2022-08-01T10:53:06;7.22;;;1.42;;
62724;SDS011;49026;52.600;4.694;2022-08-01T10:55:45;10.15;;;1.30;;
62724;SDS011;49026;52.600;4.694;2022-08-01T10:58:25;11.35;;;1.40;;
62724;SDS011;49026;52.600;4.694;2022-08-01T11:03:41;13.57;;;1.80;;
62724;SDS011;49026;52.600;4.694;2022-08-01T11:06:15;5.80;;;1.17;;
62724;SDS011;49026;52.600;4.694;2022-08-01T11:08:42;3.78;;;1.20;;
62724;SDS011;49026;52.600;4.694;2022-08-01T11:11:15;11.60;;;1.88;;
62724;SDS011;49026;52.600;4.694;2022-08-01T11:16:32;9.27;;;1.60;;
62724;SDS011;49026;52.600;4.694;2022-08-01T11:19:06;8.65;;;1.15;;
62724;SDS011;49026;52.600;4.694;2022-08-01T11:25:04;6.93;;;1.55;;
62724;SDS011;49026;52.600;4.694;2022-08-01T11:32:53;6.78;;;1.30;;
62724;SDS011;49026;52.600;4.694;2022-08-01T11:35:21;8.43;;;1.25;;
62724;SDS011;49026;52.600;4.694;2022-08-01T11:37:52;8.98;;;1.33;;
62724;SDS011;49026;52.600;4.694;2022-08-01T11:40:27;8.15;;;1.27;;
62724;SDS011;49026;52.600;4.694;2022-08-01T11:48:34;6.22;;;1.50;;
62724;SDS011;49026;52.600;4.694;2022-08-01T11:50:59;7.18;;;1.50;;
62724;SDS011;49026;52.600;4.694;2022-08-01T11:53:24;7.55;;;1.63;;
62724;SDS011;49026;52.600;4.694;2022-08-01T11:55:51;4.57;;;1.02;;
62724;SDS011;49026;52.600;4.694;2022-08-01T11:58:21;9.75;;;1.40;;
62724;SDS011;49026;52.600;4.694;2022-08-01T12:03:29;7.32;;;1.60;;
62724;SDS011;49026;52.600;4.694;2022-08-01T12:05:57;9.25;;;1.80;;
62724;SDS011;49026;52.600;4.694;2022-08-01T12:08:32;7.35;;;1.30;;
62724;SDS011;49026;52.600;4.694;2022-08-01T12:11:00;5.90;;;1.35;;
62724;SDS011;49026;52.600;4.694;2022-08-01T12:13:28;5.35;;;1.20;;
62724;SDS011;49026;52.600;4.694;2022-08-01T12:16:08;3.97;;;1.10;;
62724;SDS011;49026;52.600;4.694;2022-08-01T12:18:38;8.18;;;1.20;;
62724;SDS011;49026;52.600;4.694;2022-08-01T12:21:07;5.05;;;1.13;;
62724;SDS011;49026;52.600;4.694;2022-08-01T12:23:36;6.40;;;1.30;;
62724;SDS011;49026;52.600;4.694;2022-08-01T12:26:02;5.15;;;1.17;;
62724;SDS011;49026;52.600;4.694;2022-08-01T12:28:30;6.75;;;1.90;;
62724;SDS011;49026;52.600;4.694;2022-08-01T12:31:05;4.55;;;1.20;;
62724;SDS011;49026;52.600;4.694;2022-08-01T12:33:30;4.18;;;1.00;;
62724;SDS011;49026;52.600;4.694;2022-08-01T12:35:55;7.93;;;1.83;;
62724;SDS011;49026;52.600;4.694;2022-08-01T12:38:22;6.35;;;1.20;;
62724;SDS011;49026;52.600;4.694;2022-08-01T12:40:49;6.60;;;1.23;;
62724;SDS011;49026;52.600;4.694;2022-08-01T12:43:16;6.85;;;1.17;;
62724;SDS011;49026;52.600;4.694;2022-08-01T12:45:43;4.45;;;1.00;;
62724;SDS011;49026;52.600;4.694;2022-08-01T12:48:10;8.25;;;1.50;;
62724;SDS011;49026;52.600;4.694;2022-08-01T12:53:08;4.85;;;1.13;;
62724;SDS011;49026;52.600;4.694;2022-08-01T12:55:41;6.30;;;1.50;;
62724;SDS011;49026;52.600;4.694;2022-08-01T12:58:10;9.60;;;1.42;;
62724;SDS011;49026;52.600;4.694;2022-08-01T13:00:42;6.65;;;1.50;;
62724;SDS011;49026;52.600;4.694;2022-08-01T13:03:13;4.35;;;1.50;;
62724;SDS011;49026;52.600;4.694;2022-08-01T13:08:39;7.10;;;1.35;;
62724;SDS011;49026;52.600;4.694;2022-08-01T13:13:43;5.47;;;1.35;;
62724;SDS011;49026;52.600;4.694;2022-08-01T13:16:15;4.22;;;0.80;;
62724;SDS011;49026;52.600;4.694;2022-08-01T13:18:49;4.05;;;0.77;;
62724;SDS011;49026;52.600;4.694;2022-08-01T13:21:20;4.18;;;0.90;;
62724;SDS011;49026;52.600;4.694;2022-08-01T13:29:07;3.63;;;0.90;;
62724;SDS011;49026;52.600;4.694;2022-08-01T13:31:34;5.50;;;0.90;;
62724;SDS011;49026;52.600;4.694;2022-08-01T13:34:01;7.20;;;1.00;;
62724;SDS011;49026;52.600;4.694;2022-08-01T13:36:26;5.10;;;1.00;;
62724;SDS011;49026;52.600;4.694;2022-08-01T13:38:53;7.13;;;1.33;;
62724;SDS011;49026;52.600;4.694;2022-08-01T13:41:38;4.28;;;1.15;;
62724;SDS011;49026;52.600;4.694;2022-08-01T13:44:04;4.97;;;1.15;;
62724;SDS011;49026;52.600;4.694;2022-08-01T13:46:30;3.28;;;1.15;;
62724;SDS011;49026;52.600;4.694;2022-08-01T13:48:58;3.08;;;0.90;;
62724;SDS011;49026;52.600;4.694;2022-08-01T13:51:24;3.83;;;0.98;;
62724;SDS011;49026;52.600;4.694;2022-08-01T13:53:51;5.97;;;1.10;;
62724;SDS011;49026;52.600;4.694;2022-08-01T13:56:16;6.93;;;1.17;;
62724;SDS011;49026;52.600;4.694;2022-08-01T13:58:45;5.47;;;0.90;;
62724;SDS011;49026;52.600;4.694;2022-08-01T14:01:10;7.25;;;1.08;;
62724;SDS011;49026;52.600;4.694;2022-08-01T14:03:35;6.30;;;1.00;;
62724;SDS011;49026;52.600;4.694;2022-08-01T14:06:03;4.32;;;1.00;;
62724;SDS011;49026;52.600;4.694;2022-08-01T14:08:31;3.25;;;0.75;;
62724;SDS011;49026;52.600;4.694;2022-08-01T14:10:57;3.42;;;0.82;;
62724;SDS011;49026;52.600;4.694;2022-08-01T14:13:24;5.20;;;0.90;;
62724;SDS011;49026;52.600;4.694;2022-08-01T14:15:52;4.47;;;0.97;;
62724;SDS011;49026;52.600;4.694;2022-08-01T14:18:20;2.33;;;0.75;;
62724;SDS011;49026;52.600;4.694;2022-08-01T14:20:45;8.43;;;1.15;;
62724;SDS011;49026;52.600;4.694;2022-08-01T14:23:11;4.55;;;1.00;;
62724;SDS011;49026;52.600;4.694;2022-08-01T14:25:37;6.18;;;0.90;;
62724;SDS011;49026;52.600;4.694;2022-08-01T14:28:05;8.43;;;0.90;;
62724;SDS011;49026;52.600;4.694;2022-08-01T14:30:31;6.97;;;1.15;;
62724;SDS011;49026;52.600;4.694;2022-08-01T14:32:57;6.78;;;1.10;;
62724;SDS011;49026;52.600;4.694;2022-08-01T14:35:22;5.80;;;1.02;;
62724;SDS011;49026;52.600;4.694;2022-08-01T14:37:50;5.38;;;1.00;;
62724;SDS011;49026;52.600;4.694;2022-08-01T14:40:18;2.33;;;0.75;;
62724;SDS011;49026;52.600;4.694;2022-08-01T14:42:43;4.65;;;0.90;;
62724;SDS011;49026;52.600;4.694;2022-08-01T14:45:09;5.40;;;1.13;;
62724;SDS011;49026;52.600;4.694;2022-08-01T14:47:38;5.38;;;0.98;;
62724;SDS011;49026;52.600;4.694;2022-08-01T14:50:05;3.22;;;0.93;;
62724;SDS011;49026;52.600;4.694;2022-08-01T14:52:33;5.22;;;0.90;;
62724;SDS011;49026;52.600;4.694;2022-08-01T14:54:59;2.13;;;0.80;;
62724;SDS011;49026;52.600;4.694;2022-08-01T14:57:24;3.25;;;0.70;;
62724;SDS011;49026;52.600;4.694;2022-08-01T14:59:50;9.40;;;0.80;;
62724;SDS011;49026;52.600;4.694;2022-08-01T15:02:15;3.67;;;1.13;;
62724;SDS011;49026;52.600;4.694;2022-08-01T15:04:42;4.30;;;1.00;;
62724;SDS011;49026;52.600;4.694;2022-08-01T15:07:11;2.83;;;0.80;;
62724;SDS011;49026;52.600;4.694;2022-08-01T15:09:37;4.95;;;0.90;;
62724;SDS011;49026;52.600;4.694;2022-08-01T15:12:03;5.00;;;0.90;;
62724;SDS011;49026;52.600;4.694;2022-08-01T15:14:29;8.07;;;1.10;;
62724;SDS011;49026;52.600;4.694;2022-08-01T15:17:16;5.60;;;1.15;;
62724;SDS011;49026;52.600;4.694;2022-08-01T15:19:43;6.93;;;1.33;;
62724;SDS011;49026;52.600;4.694;2022-08-01T15:22:09;3.83;;;0.80;;
62724;SDS011;49026;52.600;4.694;2022-08-01T15:24:35;3.90;;;0.90;;
62724;SDS011;49026;52.600;4.694;2022-08-01T15:27:00;3.25;;;1.00;;
62724;SDS011;49026;52.600;4.694;2022-08-01T15:29:28;4.07;;;0.90;;
62724;SDS011;49026;52.600;4.694;2022-08-01T15:31:53;3.80;;;0.77;;
62724;SDS011;49026;52.600;4.694;2022-08-01T15:34:20;3.72;;;0.95;;
62724;SDS011;49026;52.600;4.694;2022-08-01T15:36:48;5.53;;;0.80;;
62724;SDS011;49026;52.600;4.694;2022-08-01T15:39:13;3.63;;;0.70;;
62724;SDS011;49026;52.600;4.694;2022-08-01T15:41:39;4.68;;;0.90;;
62724;SDS011;49026;52.600;4.694;2022-08-01T15:44:07;2.20;;;0.60;;
62724;SDS011;49026;52.600;4.694;2022-08-01T15:46:33;7.43;;;1.23;;
62724;SDS011;49026;52.600;4.694;2022-08-01T15:49:04;8.57;;;1.25;;